Time;durP1;ratioP1;P1;durP2;ratioP2;P2;SDS_P1;SDS_P2;PMS_P1;PMS_P2;Temp;Humidity;BMP_temperature;BMP_pressure;BME280_temperature;BME280_humidity;BME280_pressure;Samples;Min_cycle;Max_cycle;Signal;HPM_P1;HPM_P2
2021/03/13 00:01:23;;;;;;;6.10;1.23;;;7.90;1.00;;;;;;5094351;28;20282;-67
2021/03/13 00:03:49;;;;;;;8.53;1.30;;;7.90;1.00;;;;;;5094284;28;20506;-67
2021/03/13 00:06:14;;;;;;;3.33;1.20;;;7.80;1.00;;;;;;5092936;28;20384;-68
2021/03/13 00:08:40;;;;;;;4.50;1.10;;;7.80;1.00;;;;;;5094548;28;20156;-68
2021/03/13 00:11:07;;;;;;;5.13;1.23;;;7.70;1.00;;;;;;5094544;28;20566;-68
2021/03/13 00:13:33;;;;;;;3.90;1.27;;;7.80;1.00;;;;;;5094495;28;20568;-68
2021/03/13 00:15:59;;;;;;;3.40;0.90;;;7.80;1.00;;;;;;5093994;28;20178;-68
2021/03/13 00:18:25;;;;;;;4.90;1.20;;;7.70;1.00;;;;;;5094427;28;20620;-68
2021/03/13 00:20:51;;;;;;;6.83;1.90;;;7.70;1.00;;;;;;5094359;28;20224;-67
2021/03/13 00:23:17;;;;;;;7.90;1.27;;;7.50;1.00;;;;;;5094048;28;20198;-68
2021/03/13 00:25:43;;;;;;;9.10;1.90;;;7.50;1.00;;;;;;5093972;28;20242;-68
2021/03/13 00:28:09;;;;;;;6.90;1.53;;;7.10;1.00;;;;;;5093929;28;20167;-68
2021/03/13 00:30:39;;;;;;;3.67;1.08;;;6.90;1.00;;;;;;5093956;28;20368;-67
2021/03/13 00:33:11;;;;;;;3.35;1.10;;;6.90;1.00;;;;;;5093852;28;20277;-68
2021/03/13 00:35:37;;;;;;;2.22;1.00;;;7.00;1.00;;;;;;5094021;28;20520;-67
2021/03/13 00:38:04;;;;;;;5.38;1.85;;;7.10;1.00;;;;;;5093929;28;20217;-67
2021/03/13 00:40:31;;;;;;;4.85;1.27;;;7.00;1.00;;;;;;5093793;28;20168;-68
2021/03/13 00:42:58;;;;;;;4.15;0.90;;;7.00;20.70;;;;;;5093690;28;20187;-68
2021/03/13 00:45:25;;;;;;;3.75;1.00;;;6.90;15.20;;;;;;5093554;28;20202;-68
2021/03/13 00:47:51;;;;;;;2.50;1.50;;;6.80;54.10;;;;;;5093588;28;20174;-68
2021/03/13 00:50:21;;;;;;;5.55;1.40;;;7.00;34.80;;;;;;5093846;28;20194;-67
2021/03/13 00:52:47;;;;;;;6.25;1.30;;;6.90;32.70;;;;;;5093466;28;20254;-68
2021/03/13 00:55:14;;;;;;;6.33;1.03;;;7.00;99.90;;;;;;5093428;28;20678;-68
2021/03/13 00:57:39;;;;;;;4.22;1.27;;;6.90;99.90;;;;;;5093664;28;20426;-68
2021/03/13 01:00:07;;;;;;;9.77;1.30;;;7.00;99.90;;;;;;5093554;28;20195;-68
2021/03/13 01:02:32;;;;;;;4.93;1.50;;;7.10;99.90;;;;;;5093076;28;20187;-68
2021/03/13 01:04:58;;;;;;;5.80;1.30;;;7.00;99.90;;;;;;5093517;28;20672;-68
2021/03/13 01:07:24;;;;;;;6.43;2.10;;;7.10;99.90;;;;;;5093241;28;20229;-68
2021/03/13 01:09:50;;;;;;;5.20;1.40;;;7.00;99.90;;;;;;5093197;28;20176;-68
2021/03/13 01:12:15;;;;;;;2.38;0.90;;;7.10;99.90;;;;;;5093063;28;20222;-68
2021/03/13 01:14:41;;;;;;;4.30;2.23;;;7.10;99.90;;;;;;5093144;28;20537;-68
2021/03/13 01:17:07;;;;;;;9.87;1.13;;;7.10;99.90;;;;;;5093195;28;20527;-68
2021/03/13 01:19:32;;;;;;;3.70;1.63;;;7.10;99.90;;;;;;5093030;28;20517;-68
2021/03/13 01:21:58;;;;;;;8.10;2.20;;;7.00;99.90;;;;;;5092981;28;20194;-68
2021/03/13 01:24:23;;;;;;;6.00;1.30;;;7.00;99.90;;;;;;5092983;28;20194;-68
2021/03/13 01:26:49;;;;;;;4.87;1.40;;;6.90;1.00;;;;;;5092508;28;20537;-68
2021/03/13 01:29:15;;;;;;;4.77;1.80;;;6.90;99.90;;;;;;5093060;28;20174;-68
2021/03/13 01:31:40;;;;;;;7.20;2.00;;;7.00;1.00;;;;;;5092873;28;20179;-68
2021/03/13 01:34:06;;;;;;;4.83;1.80;;;6.90;99.90;;;;;;5092959;28;20229;-69
2021/03/13 01:36:32;;;;;;;11.17;2.07;;;6.90;99.90;;;;;;5092889;28;20585;-68
2021/03/13 01:38:58;;;;;;;3.15;1.50;;;6.90;99.90;;;;;;5093195;28;20164;-68
2021/03/13 01:41:24;;;;;;;5.23;1.67;;;7.00;99.90;;;;;;5093001;28;20214;-68
2021/03/13 01:43:49;;;;;;;2.40;1.50;;;7.00;99.90;;;;;;5092877;28;20173;-68
2021/03/13 01:46:15;;;;;;;5.67;1.93;;;6.90;99.90;;;;;;5092919;28;20206;-68
2021/03/13 01:48:49;;;;;;;6.50;2.10;;;6.90;99.90;;;;;;5092978;28;20214;-68
2021/03/13 01:51:16;;;;;;;5.30;2.20;;;7.00;99.90;;;;;;5092919;28;20160;-68
2021/03/13 01:53:41;;;;;;;5.80;2.00;;;6.90;99.90;;;;;;5092831;28;20258;-68
2021/03/13 01:56:07;;;;;;;6.90;1.97;;;7.00;99.90;;;;;;5092880;28;20315;-68
2021/03/13 01:58:33;;;;;;;2.87;1.83;;;7.00;99.90;;;;;;5092977;28;20183;-68
2021/03/13 02:00:58;;;;;;;4.53;2.30;;;7.00;99.90;;;;;;5092790;28;20540;-68
2021/03/13 02:03:24;;;;;;;4.17;1.67;;;7.00;99.90;;;;;;5092894;28;20240;-68
2021/03/13 02:05:51;;;;;;;7.03;2.47;;;7.10;99.90;;;;;;5092721;28;20295;-68
2021/03/13 02:08:41;;;;;;;3.38;1.80;;;7.10;99.90;;;;;;5092804;28;20269;-68
2021/03/13 02:11:28;;;;;;;3.65;1.95;;;7.10;99.90;;;;;;5092645;28;20237;-68
2021/03/13 02:14:06;;;;;;;6.80;2.05;;;7.00;99.90;;;;;;5093061;28;20159;-68
2021/03/13 02:16:58;;;;;;;3.05;1.40;;;7.00;99.90;;;;;;5092808;28;20240;-68
2021/03/13 02:19:52;;;;;;;5.55;1.75;;;7.10;99.90;;;;;;5092699;28;20144;-68
2021/03/13 02:22:20;;;;;;;2.47;1.58;;;7.00;99.90;;;;;;5092815;28;20270;-68
2021/03/13 02:25:05;;;;;;;6.00;1.60;;;7.00;99.90;;;;;;5092837;28;20241;-69
2021/03/13 02:27:40;;;;;;;2.97;1.40;;;7.00;99.90;;;;;;5092577;28;20167;-68
2021/03/13 02:30:12;;;;;;;4.70;1.55;;;7.10;99.90;;;;;;5092921;28;20231;-68
2021/03/13 02:32:50;;;;;;;2.25;1.58;;;7.00;99.90;;;;;;5092554;28;20175;-68
2021/03/13 02:35:43;;;;;;;3.85;1.45;;;7.00;99.90;;;;;;5092802;28;20163;-68
2021/03/13 02:38:34;;;;;;;1.70;1.60;;;6.90;99.90;;;;;;5086102;28;20233;-68
2021/03/13 02:41:05;;;;;;;3.05;1.58;;;6.80;1.00;;;;;;5096206;28;20179;-68
2021/03/13 02:43:33;;;;;;;3.97;1.10;;;6.80;99.90;;;;;;5096526;28;20517;-68
2021/03/13 02:46:00;;;;;;;3.00;1.15;;;6.80;99.90;;;;;;5096366;28;20666;-68
2021/03/13 02:48:28;;;;;;;2.95;1.25;;;6.90;99.90;;;;;;5096186;28;20159;-68
2021/03/13 02:50:55;;;;;;;1.50;1.30;;;6.90;99.90;;;;;;5096421;28;20320;-69
2021/03/13 02:53:22;;;;;;;2.70;1.23;;;6.80;99.90;;;;;;5095898;28;20243;-68
2021/03/13 02:55:50;;;;;;;2.17;1.17;;;6.70;99.90;;;;;;5095720;28;20168;-68
2021/03/13 02:58:18;;;;;;;3.72;1.33;;;6.80;99.90;;;;;;5095748;28;20171;-68
2021/03/13 03:00:45;;;;;;;2.22;1.02;;;6.90;99.90;;;;;;5095802;28;20191;-69
2021/03/13 03:03:11;;;;;;;6.20;1.20;;;6.90;99.90;;;;;;5095553;28;20556;-68
2021/03/13 03:05:38;;;;;;;2.75;1.00;;;6.80;99.90;;;;;;5095592;28;20187;-68
2021/03/13 03:08:07;;;;;;;3.28;1.08;;;6.90;99.90;;;;;;5095537;28;20185;-67
2021/03/13 03:10:36;;;;;;;1.55;0.73;;;6.80;99.90;;;;;;5095698;28;20163;-67
2021/03/13 03:13:04;;;;;;;1.10;0.70;;;6.90;99.90;;;;;;5095388;28;20278;-67
2021/03/13 03:15:32;;;;;;;1.60;0.80;;;6.90;99.90;;;;;;5095485;28;20167;-67
2021/03/13 03:18:03;;;;;;;2.65;1.38;;;6.90;99.90;;;;;;5095649;28;20171;-67
2021/03/13 03:20:30;;;;;;;4.80;1.30;;;7.00;92.40;;;;;;5095335;28;20144;-67
2021/03/13 03:22:56;;;;;;;1.20;0.70;;;7.10;86.30;;;;;;5095282;28;20194;-67
2021/03/13 03:25:22;;;;;;;1.40;0.70;;;7.20;26.90;;;;;;5095164;28;20561;-67
2021/03/13 03:27:50;;;;;;;1.10;0.63;;;7.10;27.10;;;;;;5095220;28;20168;-67
2021/03/13 03:30:27;;;;;;;0.90;0.50;;;7.10;18.70;;;;;;5095297;28;20301;-67
2021/03/13 03:32:53;;;;;;;2.75;0.60;;;7.10;26.30;;;;;;5095380;28;20187;-67
2021/03/13 03:35:21;;;;;;;0.83;0.57;;;7.10;6.20;;;;;;5095101;28;20178;-67
2021/03/13 03:37:47;;;;;;;1.45;0.50;;;7.10;15.10;;;;;;5095058;28;20172;-67
2021/03/13 03:40:16;;;;;;;0.80;0.60;;;7.10;6.90;;;;;;5095015;28;20233;-67
2021/03/13 03:42:49;;;;;;;6.57;1.25;;;7.00;13.60;;;;;;5094951;28;20421;-68
2021/03/13 03:45:20;;;;;;;2.13;0.88;;;7.10;1.00;;;;;;5094658;28;20196;-67
2021/03/13 03:47:48;;;;;;;2.28;0.65;;;7.10;1.00;;;;;;5094622;28;20151;-67
2021/03/13 03:50:15;;;;;;;1.95;0.60;;;7.10;1.00;;;;;;5094057;28;20164;-67
2021/03/13 03:52:43;;;;;;;2.30;0.70;;;7.10;1.00;;;;;;5094465;28;20183;-67
2021/03/13 03:55:12;;;;;;;1.80;0.70;;;7.00;1.00;;;;;;5094568;28;20262;-67
2021/03/13 03:57:40;;;;;;;2.08;0.70;;;7.10;1.00;;;;;;5094727;28;20640;-67
2021/03/13 04:00:08;;;;;;;2.45;0.57;;;7.10;1.00;;;;;;5094429;28;20167;-67
2021/03/13 04:02:35;;;;;;;1.08;0.52;;;7.10;1.00;;;;;;5094245;28;20231;-67
2021/03/13 04:05:03;;;;;;;0.90;0.50;;;7.10;1.00;;;;;;5094269;28;20293;-66
2021/03/13 04:07:29;;;;;;;1.00;0.60;;;7.20;1.00;;;;;;5094001;28;20183;-68
2021/03/13 04:09:55;;;;;;;0.80;0.40;;;7.10;1.00;;;;;;5094604;28;20167;-67
2021/03/13 04:12:22;;;;;;;1.38;0.50;;;7.20;1.00;;;;;;5094241;28;20317;-68
2021/03/13 04:14:48;;;;;;;1.35;0.55;;;7.20;1.00;;;;;;5094203;28;20636;-68
2021/03/13 04:17:15;;;;;;;2.92;0.52;;;7.20;1.00;;;;;;5092818;28;20186;-68
2021/03/13 04:19:41;;;;;;;0.95;0.55;;;7.10;1.00;;;;;;5094117;28;20263;-68
2021/03/13 04:22:07;;;;;;;1.07;0.50;;;7.10;1.00;;;;;;5093898;28;20183;-68
2021/03/13 04:24:33;;;;;;;0.95;0.50;;;7.10;1.00;;;;;;5093854;28;20191;-67
2021/03/13 04:27:00;;;;;;;1.33;0.50;;;7.20;1.00;;;;;;5093954;28;20167;-68
2021/03/13 04:29:26;;;;;;;0.93;0.50;;;7.10;5.50;;;;;;5093879;28;20201;-67
2021/03/13 04:31:52;;;;;;;1.03;0.60;;;7.20;58.30;;;;;;5093765;28;20179;-68
2021/03/13 04:34:18;;;;;;;1.85;0.60;;;7.20;41.40;;;;;;5093812;28;20190;-68
2021/03/13 04:36:44;;;;;;;1.10;0.60;;;7.20;76.80;;;;;;5093739;28;20206;-67
2021/03/13 04:39:10;;;;;;;0.80;0.50;;;7.20;93.50;;;;;;5094256;28;20556;-68
2021/03/13 04:41:37;;;;;;;3.83;0.50;;;7.10;99.90;;;;;;5093754;28;20512;-68
2021/03/13 04:44:03;;;;;;;4.30;0.70;;;7.10;99.90;;;;;;5093737;28;20210;-68
2021/03/13 04:46:34;;;;;;;1.52;0.60;;;7.10;99.90;;;;;;5093584;28;20239;-68
2021/03/13 04:49:03;;;;;;;1.10;0.88;;;7.10;99.90;;;;;;5093828;28;20180;-68
2021/03/13 04:51:28;;;;;;;1.30;0.60;;;7.20;99.90;;;;;;5093440;28;20183;-68
2021/03/13 04:53:54;;;;;;;1.13;0.40;;;7.10;99.90;;;;;;5093434;28;20166;-68
2021/03/13 04:56:19;;;;;;;1.40;0.70;;;7.20;99.90;;;;;;5093733;28;20172;-68
2021/03/13 04:58:45;;;;;;;0.90;0.50;;;7.10;99.90;;;;;;5093390;28;20167;-68
2021/03/13 05:01:12;;;;;;;0.97;0.50;;;7.20;99.90;;;;;;5092624;28;20497;-68
2021/03/13 05:03:38;;;;;;;0.80;0.43;;;7.20;99.90;;;;;;5093249;28;20536;-68
2021/03/13 05:06:03;;;;;;;1.33;0.50;;;7.10;99.90;;;;;;5093454;28;20191;-67
2021/03/13 05:08:29;;;;;;;1.30;0.50;;;7.20;99.90;;;;;;5093993;28;20179;-68
2021/03/13 05:10:54;;;;;;;1.00;0.60;;;7.30;99.90;;;;;;5093176;28;20408;-67
2021/03/13 05:13:20;;;;;;;1.70;0.90;;;7.20;99.90;;;;;;5093070;28;20186;-68
2021/03/13 05:15:45;;;;;;;1.63;0.50;;;7.30;99.90;;;;;;5093442;28;20174;-68
2021/03/13 05:18:11;;;;;;;2.20;0.50;;;7.30;99.90;;;;;;5093429;28;20175;-68
2021/03/13 05:20:37;;;;;;;2.07;0.70;;;7.30;99.90;;;;;;5093166;28;20251;-68
2021/03/13 05:23:02;;;;;;;1.17;0.60;;;7.40;99.90;;;;;;5093054;28;20206;-68
2021/03/13 05:25:28;;;;;;;1.20;0.60;;;7.30;99.90;;;;;;5092886;28;20187;-68
2021/03/13 05:27:53;;;;;;;1.00;0.50;;;7.40;99.90;;;;;;5092903;28;20174;-68
2021/03/13 05:30:19;;;;;;;4.53;1.00;;;7.40;99.90;;;;;;5093046;28;20217;-68
2021/03/13 05:32:45;;;;;;;1.10;0.47;;;7.50;99.90;;;;;;5093108;28;20624;-68
2021/03/13 05:35:11;;;;;;;1.50;0.80;;;7.50;99.90;;;;;;5092916;28;20182;-68
2021/03/13 05:37:38;;;;;;;2.08;0.70;;;7.50;99.90;;;;;;5092920;28;20171;-67
2021/03/13 05:40:05;;;;;;;1.27;0.50;;;7.50;99.90;;;;;;5092874;28;20171;-68
2021/03/13 05:42:31;;;;;;;0.90;0.43;;;7.60;99.90;;;;;;5091429;28;20241;-68
2021/03/13 05:44:58;;;;;;;2.60;1.48;;;7.60;99.90;;;;;;5092603;28;20227;-69
2021/03/13 05:47:25;;;;;;;1.85;0.65;;;7.60;99.90;;;;;;5092747;28;20167;-68
2021/03/13 05:50:01;;;;;;;1.30;0.50;;;7.70;96.40;;;;;;5092715;28;20225;-68
2021/03/13 05:52:33;;;;;;;2.08;0.60;;;7.70;99.90;;;;;;5092685;28;20655;-68
2021/03/13 05:54:59;;;;;;;2.65;0.50;;;7.70;99.90;;;;;;5093007;28;20164;-68
2021/03/13 05:57:25;;;;;;;2.60;0.80;;;7.70;42.50;;;;;;5092946;28;20167;-68
2021/03/13 05:59:51;;;;;;;0.90;0.50;;;7.70;99.90;;;;;;5092643;28;20168;-68
2021/03/13 06:02:18;;;;;;;1.60;0.50;;;7.70;94.80;;;;;;5092669;28;20941;-68
2021/03/13 06:04:44;;;;;;;1.35;0.60;;;7.70;99.90;;;;;;5092885;28;20831;-68
2021/03/13 06:07:14;;;;;;;3.83;0.60;;;7.70;97.30;;;;;;5093180;28;20285;-68
2021/03/13 06:09:40;;;;;;;0.80;0.40;;;7.70;71.40;;;;;;5093509;28;20172;-68
2021/03/13 06:12:06;;;;;;;2.00;0.70;;;7.80;31.60;;;;;;5093518;28;20191;-68
2021/03/13 06:14:32;;;;;;;1.63;0.60;;;7.90;1.00;;;;;;5096457;28;20174;-68
2021/03/13 06:16:58;;;;;;;1.73;0.60;;;8.00;1.00;;;;;;5097076;28;20167;-68
2021/03/13 06:19:23;;;;;;;1.80;0.70;;;8.00;1.00;;;;;;5096408;28;20171;-67
2021/03/13 06:21:49;;;;;;;1.30;0.50;;;8.10;1.00;;;;;;5096346;28;20400;-67
2021/03/13 06:24:21;;;;;;;4.20;0.97;;;8.10;1.00;;;;;;5096266;28;20286;-68
2021/03/13 06:27:01;;;;;;;2.25;1.35;;;8.20;1.00;;;;;;5096552;28;20148;-68
2021/03/13 06:29:27;;;;;;;2.17;0.80;;;8.20;1.00;;;;;;5096359;28;20274;-68
2021/03/13 06:32:10;;;;;;;1.77;0.50;;;8.20;1.00;;;;;;5095974;28;20195;-69
2021/03/13 06:34:36;;;;;;;1.52;0.60;;;8.30;1.00;;;;;;5096449;28;20243;-68
2021/03/13 06:37:26;;;;;;;1.30;0.50;;;8.30;1.00;;;;;;5096029;28;20269;-68
2021/03/13 06:39:53;;;;;;;2.45;0.90;;;8.30;1.00;;;;;;5095878;28;20155;-68
2021/03/13 06:42:27;;;;;;;0.95;0.60;;;8.30;1.00;;;;;;5095776;28;20228;-68
2021/03/13 06:45:04;;;;;;;2.08;0.98;;;8.40;1.00;;;;;;5095896;28;20555;-67
2021/03/13 06:47:34;;;;;;;1.48;0.40;;;8.40;1.00;;;;;;5096452;28;20147;-69
2021/03/13 06:50:21;;;;;;;4.63;0.93;;;8.40;1.00;;;;;;5096339;28;20164;-69
2021/03/13 06:52:50;;;;;;;1.85;0.60;;;8.40;1.00;;;;;;5095951;28;20236;-68
2021/03/13 06:55:24;;;;;;;1.88;0.80;;;8.50;1.00;;;;;;5095727;28;20183;-69
2021/03/13 06:57:51;;;;;;;3.55;0.63;;;8.40;1.00;;;;;;5095689;28;20163;-68
2021/03/13 07:00:33;;;;;;;1.65;0.55;;;8.40;1.00;;;;;;5095457;28;20168;-67
2021/03/13 07:03:10;;;;;;;4.13;0.70;;;8.40;1.00;;;;;;5095477;28;20521;-67
2021/03/13 07:05:43;;;;;;;1.10;0.50;;;8.40;1.00;;;;;;5095452;28;20179;-67
2021/03/13 07:08:22;;;;;;;2.97;0.50;;;8.40;1.00;;;;;;5095323;28;20202;-67
2021/03/13 07:10:47;;;;;;;2.60;0.45;;;8.40;1.00;;;;;;5095873;28;20536;-67
2021/03/13 07:13:33;;;;;;;1.57;0.50;;;8.40;1.00;;;;;;5095250;28;20232;-67
2021/03/13 07:16:21;;;;;;;0.75;0.40;;;8.40;1.00;;;;;;5095485;28;20151;-67
2021/03/13 07:18:48;;;;;;;1.77;0.50;;;8.40;1.00;;;;;;5095612;28;20208;-68
2021/03/13 07:21:14;;;;;;;4.78;0.57;;;8.40;1.00;;;;;;5095407;28;20264;-68
2021/03/13 07:23:44;;;;;;;1.10;0.60;;;8.40;1.00;;;;;;5094514;28;20168;-67
2021/03/13 07:26:11;;;;;;;2.65;0.50;;;8.40;1.00;;;;;;5094846;28;20233;-67
2021/03/13 07:28:44;;;;;;;1.27;0.52;;;8.50;1.00;;;;;;5094998;28;20167;-68
2021/03/13 07:31:10;;;;;;;1.75;0.50;;;8.50;1.00;;;;;;5094947;28;20739;-68
2021/03/13 07:33:39;;;;;;;2.10;0.90;;;8.40;1.00;;;;;;5095547;28;20647;-67
2021/03/13 07:36:09;;;;;;;1.65;0.50;;;8.50;1.00;;;;;;5094957;28;20242;-68
2021/03/13 07:38:38;;;;;;;1.15;0.70;;;8.50;1.00;;;;;;5094939;28;20323;-68
2021/03/13 07:41:05;;;;;;;1.55;0.60;;;8.60;1.00;;;;;;5094664;28;20164;-68
2021/03/13 07:43:34;;;;;;;1.75;0.60;;;8.60;1.00;;;;;;5094603;28;20666;-67
2021/03/13 07:46:00;;;;;;;1.92;0.93;;;8.60;1.00;;;;;;5094575;28;20606;-68
2021/03/13 07:48:27;;;;;;;0.70;0.40;;;8.50;1.00;;;;;;5094750;28;20163;-68
2021/03/13 07:50:53;;;;;;;0.80;0.40;;;8.50;1.00;;;;;;5094693;28;20163;-67
2021/03/13 07:53:19;;;;;;;0.80;0.43;;;8.60;1.00;;;;;;5094628;28;20210;-67
2021/03/13 07:55:50;;;;;;;2.53;0.63;;;8.60;1.00;;;;;;5094432;28;20171;-68
2021/03/13 07:58:15;;;;;;;2.95;0.90;;;8.60;1.00;;;;;;5094481;28;20407;-68
2021/03/13 08:00:46;;;;;;;2.80;0.57;;;8.60;1.00;;;;;;5094686;28;20167;-68
2021/03/13 08:03:26;;;;;;;1.45;0.60;;;8.50;1.00;;;;;;5094438;28;20505;-68
2021/03/13 08:05:56;;;;;;;1.48;0.50;;;7.50;55.20;;;;;;5094501;28;20206;-68
2021/03/13 08:08:36;;;;;;;4.35;0.40;;;6.60;99.90;;;;;;5094548;28;20186;-68
2021/03/13 08:11:03;;;;;;;1.25;0.45;;;6.30;99.90;;;;;;5094359;28;20170;-67
2021/03/13 08:13:28;;;;;;;3.08;0.57;;;6.00;1.00;;;;;;5094264;28;20654;-67
2021/03/13 08:16:07;;;;;;;0.93;0.50;;;6.00;1.00;;;;;;5094526;28;20168;-67
2021/03/13 08:18:53;;;;;;;1.98;0.60;;;6.10;1.00;;;;;;5094523;28;20169;-67
2021/03/13 08:21:20;;;;;;;1.95;0.98;;;6.20;1.00;;;;;;5092840;28;20156;-67
2021/03/13 08:23:57;;;;;;;2.20;1.35;;;6.50;99.90;;;;;;5094663;28;20172;-68
2021/03/13 08:26:35;;;;;;;1.33;0.77;;;6.60;99.90;;;;;;5093841;28;20178;-68
2021/03/13 08:29:02;;;;;;;1.42;0.85;;;6.70;93.50;;;;;;5093960;28;20201;-68
2021/03/13 08:31:28;;;;;;;1.02;0.52;;;6.80;1.00;;;;;;5094011;28;20191;-68
2021/03/13 08:33:57;;;;;;;5.45;0.68;;;6.80;1.00;;;;;;5093912;28;20216;-68
2021/03/13 08:36:26;;;;;;;1.85;0.95;;;6.90;1.00;;;;;;5094085;28;20636;-68
2021/03/13 08:38:59;;;;;;;1.13;0.80;;;7.00;1.00;;;;;;5093556;28;20164;-68
2021/03/13 08:41:43;;;;;;;3.08;0.90;;;6.90;1.00;;;;;;5093544;28;20194;-68
2021/03/13 08:44:31;;;;;;;5.80;4.10;;;7.10;1.00;;;;;;5093627;28;20670;-66
2021/03/13 08:47:10;;;;;;;2.13;0.90;;;7.10;6.80;;;;;;5094071;28;20210;-66
2021/03/13 08:49:38;;;;;;;4.72;0.95;;;7.10;1.00;;;;;;5093908;28;20159;-67
2021/03/13 08:52:07;;;;;;;1.60;0.70;;;7.20;27.80;;;;;;5094546;28;20179;-67
2021/03/13 08:54:43;;;;;;;3.30;0.80;;;7.20;85.20;;;;;;5093481;28;20175;-67
2021/03/13 08:57:15;;;;;;;2.58;0.80;;;7.30;59.40;;;;;;5093383;28;20163;-67
2021/03/13 08:59:43;;;;;;;0.80;0.50;;;7.30;81.20;;;;;;5093315;28;20167;-67
2021/03/13 09:02:12;;;;;;;1.77;0.50;;;7.40;13.30;;;;;;5092882;28;20223;-68
2021/03/13 09:04:43;;;;;;;3.35;0.98;;;7.40;9.00;;;;;;5093486;28;20191;-68
2021/03/13 09:07:11;;;;;;;2.47;0.70;;;7.50;1.00;;;;;;5093260;28;20664;-68
2021/03/13 09:09:38;;;;;;;3.63;1.38;;;7.50;1.00;;;;;;5093017;28;20172;-68
2021/03/13 09:12:07;;;;;;;1.20;0.50;;;7.50;7.60;;;;;;5092931;28;20195;-68
2021/03/13 09:14:34;;;;;;;4.38;2.55;;;7.60;1.00;;;;;;5092755;28;20172;-68
2021/03/13 09:17:13;;;;;;;4.15;0.95;;;7.50;1.00;;;;;;5092842;28;20164;-68
2021/03/13 09:19:43;;;;;;;2.42;1.05;;;7.70;1.00;;;;;;5093260;28;20159;-68
2021/03/13 09:22:16;;;;;;;1.85;0.60;;;7.80;1.00;;;;;;5092792;28;20201;-68
2021/03/13 09:24:42;;;;;;;3.28;0.60;;;7.80;1.00;;;;;;5092784;28;20554;-67
2021/03/13 09:27:08;;;;;;;2.28;0.60;;;7.90;1.00;;;;;;5092919;28;20167;-66
2021/03/13 09:29:35;;;;;;;3.25;1.02;;;8.00;1.00;;;;;;5092897;28;20528;-68
2021/03/13 09:32:03;;;;;;;4.88;1.85;;;8.00;1.00;;;;;;5092895;28;20205;-67
2021/03/13 09:34:32;;;;;;;8.55;2.40;;;8.00;1.00;;;;;;5092763;28;20178;-68
2021/03/13 09:36:57;;;;;;;5.18;1.45;;;8.00;1.00;;;;;;5092735;28;20178;-69
2021/03/13 09:39:26;;;;;;;3.83;1.50;;;8.00;1.00;;;;;;5092967;28;20164;-68
2021/03/13 09:42:08;;;;;;;4.97;1.50;;;8.10;1.00;;;;;;5092807;28;20251;-68
2021/03/13 09:44:39;;;;;;;5.82;1.60;;;8.00;1.00;;;;;;5092831;28;20187;-68
2021/03/13 09:47:16;;;;;;;5.80;1.27;;;8.00;1.00;;;;;;5093060;28;20156;-68
2021/03/13 09:49:43;;;;;;;6.90;1.25;;;8.10;1.00;;;;;;5097023;28;20182;-68
2021/03/13 09:52:09;;;;;;;2.70;1.20;;;8.10;1.00;;;;;;5096850;28;20213;-68
2021/03/13 09:54:34;;;;;;;7.83;1.50;;;8.20;1.00;;;;;;5096858;28;20159;-68
2021/03/13 09:57:08;;;;;;;10.53;1.40;;;8.10;1.00;;;;;;5096860;28;20197;-68
2021/03/13 09:59:34;;;;;;;3.10;1.40;;;8.10;1.00;;;;;;5096831;28;20152;-67
2021/03/13 10:01:59;;;;;;;3.90;2.37;;;8.10;1.00;;;;;;5096540;28;20191;-67
2021/03/13 10:04:25;;;;;;;3.60;1.33;;;8.10;1.00;;;;;;5096612;28;20524;-68
2021/03/13 10:06:51;;;;;;;6.13;1.85;;;8.20;1.00;;;;;;5096505;28;20175;-67
2021/03/13 10:09:16;;;;;;;5.50;1.43;;;8.20;1.00;;;;;;5096763;28;20163;-67
2021/03/13 10:11:43;;;;;;;15.07;1.53;;;8.10;1.00;;;;;;5096781;28;20175;-68
2021/03/13 10:14:22;;;;;;;5.95;1.70;;;8.10;1.00;;;;;;5096543;28;20285;-68
2021/03/13 10:16:58;;;;;;;11.38;2.08;;;8.10;1.00;;;;;;5096615;28;20178;-67
2021/03/13 10:19:39;;;;;;;4.07;1.33;;;7.90;1.00;;;;;;5096422;28;20190;-67
2021/03/13 10:22:13;;;;;;;4.30;1.55;;;8.10;1.00;;;;;;5096207;28;20213;-68
2021/03/13 10:24:53;;;;;;;3.40;0.80;;;8.20;1.00;;;;;;5096605;28;20364;-68
2021/03/13 10:27:24;;;;;;;9.88;1.45;;;8.10;1.00;;;;;;5096622;28;20243;-68
2021/03/13 10:30:01;;;;;;;5.55;1.42;;;8.10;1.00;;;;;;5096245;28;20152;-68
2021/03/13 10:32:38;;;;;;;7.32;1.55;;;8.30;1.00;;;;;;5096267;28;20201;-68
2021/03/13 10:35:20;;;;;;;7.82;2.05;;;8.40;1.00;;;;;;5096202;28;20156;-67
2021/03/13 10:37:54;;;;;;;8.15;3.60;;;8.70;1.00;;;;;;5096132;28;20272;-67
2021/03/13 10:40:31;;;;;;;4.97;1.45;;;8.70;1.00;;;;;;5095866;28;20159;-68
2021/03/13 10:43:13;;;;;;;10.90;2.80;;;8.70;1.00;;;;;;5096039;28;20187;-68
2021/03/13 10:45:40;;;;;;;6.68;1.95;;;8.60;1.00;;;;;;5095757;28;20195;-68
2021/03/13 10:48:08;;;;;;;9.55;2.40;;;8.70;1.00;;;;;;5096367;28;20164;-68
2021/03/13 10:50:38;;;;;;;8.55;1.77;;;8.70;1.00;;;;;;5095592;28;20163;-68
2021/03/13 10:53:38;;;;;;;5.72;1.90;;;8.60;1.00;;;;;;5095975;28;20211;-68
2021/03/13 10:56:09;;;;;;;8.07;1.27;;;8.70;1.00;;;;;;5095616;28;20167;-67
2021/03/13 10:59:00;;;;;;;3.90;1.58;;;8.50;1.00;;;;;;5094831;28;20190;-68
2021/03/13 11:01:26;;;;;;;2.47;1.10;;;8.70;1.00;;;;;;5095465;28;20284;-67
2021/03/13 11:03:55;;;;;;;14.43;2.30;;;8.70;1.00;;;;;;5095593;28;20195;-67
2021/03/13 11:06:29;;;;;;;9.50;2.42;;;8.90;1.00;;;;;;5095543;28;20222;-67
2021/03/13 11:09:00;;;;;;;4.40;1.20;;;9.10;1.00;;;;;;5095859;28;20159;-67
2021/03/13 11:11:26;;;;;;;7.57;1.92;;;9.20;1.00;;;;;;5095220;28;20664;-67
2021/03/13 11:13:52;;;;;;;3.23;1.40;;;9.30;1.00;;;;;;5095358;28;20242;-67
2021/03/13 11:16:22;;;;;;;8.00;2.10;;;9.10;1.00;;;;;;5095373;28;20376;-67
2021/03/13 11:18:49;;;;;;;10.98;2.55;;;9.10;1.00;;;;;;5095047;28;20439;-67
2021/03/13 11:21:15;;;;;;;3.83;1.85;;;9.20;1.00;;;;;;5095114;28;20178;-67
2021/03/13 11:23:40;;;;;;;4.90;1.60;;;8.90;1.00;;;;;;5095031;28;20168;-67
2021/03/13 11:26:06;;;;;;;6.70;1.40;;;8.80;1.00;;;;;;5094981;28;20620;-67
2021/03/13 11:28:32;;;;;;;12.53;2.40;;;8.90;1.00;;;;;;5095157;28;20295;-67
2021/03/13 11:30:58;;;;;;;5.28;1.27;;;9.10;1.00;;;;;;5095052;28;20164;-67
2021/03/13 11:33:23;;;;;;;10.30;1.40;;;9.10;1.00;;;;;;5094802;28;20559;-67
2021/03/13 11:35:49;;;;;;;5.37;1.40;;;9.00;1.00;;;;;;5094989;28;20683;-67
2021/03/13 11:38:14;;;;;;;4.97;1.73;;;9.10;1.00;;;;;;5095096;28;20281;-68
2021/03/13 11:40:40;;;;;;;8.13;1.67;;;9.10;1.00;;;;;;5095009;28;20194;-67
2021/03/13 11:43:06;;;;;;;5.57;1.40;;;9.10;1.00;;;;;;5094955;28;20225;-67
2021/03/13 11:45:31;;;;;;;9.70;2.70;;;9.10;1.00;;;;;;5094351;28;20195;-67
2021/03/13 11:47:57;;;;;;;9.60;2.03;;;9.20;1.00;;;;;;5094689;28;20504;-67
2021/03/13 11:50:25;;;;;;;9.10;2.27;;;9.20;1.00;;;;;;5094568;28;20174;-67
2021/03/13 11:52:52;;;;;;;26.77;2.22;;;9.30;1.00;;;;;;5094801;28;20186;-67
2021/03/13 11:55:18;;;;;;;14.90;4.10;;;9.30;1.00;;;;;;5094517;28;20217;-67
2021/03/13 11:57:44;;;;;;;10.17;2.20;;;9.40;1.00;;;;;;5094525;28;20636;-67
2021/03/13 12:00:10;;;;;;;13.57;5.03;;;9.50;1.00;;;;;;5094431;28;20434;-67
2021/03/13 12:02:37;;;;;;;7.30;1.60;;;9.70;1.00;;;;;;5094309;28;20187;-67
2021/03/13 12:05:04;;;;;;;15.10;2.60;;;9.70;1.00;;;;;;5093757;28;20200;-67
2021/03/13 12:07:29;;;;;;;6.25;1.40;;;9.70;1.00;;;;;;5094364;28;20179;-67
2021/03/13 12:09:55;;;;;;;10.50;1.47;;;9.60;99.90;;;;;;5093861;28;20233;-67
2021/03/13 12:12:21;;;;;;;13.40;4.73;;;9.50;99.90;;;;;;5094216;28;20529;-67
2021/03/13 12:14:47;;;;;;;9.03;1.60;;;9.50;99.90;;;;;;5093948;28;20171;-67
2021/03/13 12:17:12;;;;;;;12.37;1.63;;;9.30;1.00;;;;;;5094012;28;20417;-67
2021/03/13 12:19:39;;;;;;;9.40;1.60;;;8.70;1.00;;;;;;5094269;28;20174;-67
2021/03/13 12:22:05;;;;;;;7.93;1.77;;;8.40;1.00;;;;;;5093919;28;20194;-67
2021/03/13 12:24:31;;;;;;;9.30;1.55;;;8.50;1.00;;;;;;5093931;28;20191;-67
2021/03/13 12:26:57;;;;;;;8.73;1.97;;;8.90;1.00;;;;;;5095439;28;20182;-69
2021/03/13 12:29:22;;;;;;;9.20;1.87;;;9.20;1.00;;;;;;5094194;28;20163;-68
2021/03/13 12:31:48;;;;;;;11.90;1.80;;;9.30;1.00;;;;;;5094747;28;20187;-67
2021/03/13 12:34:13;;;;;;;9.13;1.80;;;9.40;1.00;;;;;;5094083;28;20206;-68
2021/03/13 12:36:39;;;;;;;7.30;1.63;;;9.80;1.00;;;;;;5093920;28;20612;-68
2021/03/13 12:39:05;;;;;;;12.77;1.90;;;9.60;1.00;;;;;;5093780;28;20179;-68
2021/03/13 12:41:31;;;;;;;2.42;1.17;;;9.70;1.00;;;;;;5093551;28;20187;-68
2021/03/13 12:43:57;;;;;;;12.70;2.40;;;9.40;1.00;;;;;;5093812;28;20243;-69
2021/03/13 12:46:22;;;;;;;9.03;2.10;;;9.30;1.00;;;;;;5093475;28;20191;-68
2021/03/13 12:48:48;;;;;;;10.07;2.20;;;9.40;1.00;;;;;;5093649;28;20159;-68
2021/03/13 12:51:15;;;;;;;9.20;2.85;;;9.00;1.00;;;;;;5093438;28;20157;-68
2021/03/13 12:53:42;;;;;;;5.15;1.38;;;9.00;1.00;;;;;;5093342;28;20164;-68
2021/03/13 12:56:07;;;;;;;6.22;1.60;;;8.90;1.00;;;;;;5093540;28;20231;-68
2021/03/13 12:58:33;;;;;;;10.10;2.63;;;8.70;1.00;;;;;;5093850;28;20636;-68
2021/03/13 13:00:59;;;;;;;8.43;2.43;;;8.80;1.00;;;;;;5093237;28;20214;-69
2021/03/13 13:03:24;;;;;;;6.87;2.77;;;8.90;1.00;;;;;;5093084;28;20183;-68
2021/03/13 13:05:50;;;;;;;13.90;2.50;;;8.70;1.00;;;;;;5093274;28;20499;-68
2021/03/13 13:08:16;;;;;;;10.40;1.13;;;8.40;1.00;;;;;;5093150;28;20179;-68
2021/03/13 13:10:42;;;;;;;9.80;2.65;;;7.70;1.00;;;;;;5093221;28;20175;-68
2021/03/13 13:13:16;;;;;;;11.23;2.67;;;7.50;1.00;;;;;;5093068;28;20551;-68